sensor_id;sensor_type;location;lat;lon;timestamp;P1;durP1;ratioP1;P2;durP2;ratioP2
70558;SDS011;58108;48.094;11.838;2023-03-01T00:02:09;20.83;;;7.77;;
70558;SDS011;58108;48.094;11.838;2023-03-01T00:04:34;23.43;;;8.03;;
70558;SDS011;58108;48.094;11.838;2023-03-01T00:07:00;19.92;;;7.40;;
70558;SDS011;58108;48.094;11.838;2023-03-01T00:09:25;23.90;;;8.93;;
70558;SDS011;58108;48.094;11.838;2023-03-01T00:11:51;21.63;;;8.23;;
70558;SDS011;58108;48.094;11.838;2023-03-01T00:14:16;24.80;;;9.43;;
70558;SDS011;58108;48.094;11.838;2023-03-01T00:16:42;20.08;;;7.75;;
70558;SDS011;58108;48.094;11.838;2023-03-01T00:19:10;22.65;;;8.75;;
70558;SDS011;58108;48.094;11.838;2023-03-01T00:21:36;24.40;;;9.13;;
70558;SDS011;58108;48.094;11.838;2023-03-01T00:24:01;25.37;;;8.83;;
70558;SDS011;58108;48.094;11.838;2023-03-01T00:26:27;26.85;;;9.05;;
70558;SDS011;58108;48.094;11.838;2023-03-01T00:28:53;24.20;;;8.93;;
70558;SDS011;58108;48.094;11.838;2023-03-01T00:31:19;15.50;;;5.75;;
70558;SDS011;58108;48.094;11.838;2023-03-01T00:33:45;20.52;;;8.45;;
70558;SDS011;58108;48.094;11.838;2023-03-01T00:36:11;23.73;;;7.93;;
70558;SDS011;58108;48.094;11.838;2023-03-01T00:38:37;22.33;;;7.18;;
70558;SDS011;58108;48.094;11.838;2023-03-01T00:41:06;19.97;;;7.03;;
70558;SDS011;58108;48.094;11.838;2023-03-01T00:43:31;19.17;;;7.82;;
70558;SDS011;58108;48.094;11.838;2023-03-01T00:46:01;21.17;;;8.32;;
70558;SDS011;58108;48.094;11.838;2023-03-01T00:48:26;24.03;;;8.60;;
70558;SDS011;58108;48.094;11.838;2023-03-01T00:50:51;21.37;;;8.00;;
70558;SDS011;58108;48.094;11.838;2023-03-01T00:53:17;17.80;;;6.53;;
70558;SDS011;58108;48.094;11.838;2023-03-01T00:55:42;23.47;;;8.53;;
70558;SDS011;58108;48.094;11.838;2023-03-01T00:58:07;19.33;;;7.73;;
70558;SDS011;58108;48.094;11.838;2023-03-01T01:00:32;18.20;;;7.33;;
70558;SDS011;58108;48.094;11.838;2023-03-01T01:02:58;23.83;;;9.07;;
70558;SDS011;58108;48.094;11.838;2023-03-01T01:05:23;21.33;;;7.93;;
70558;SDS011;58108;48.094;11.838;2023-03-01T01:07:49;23.23;;;9.17;;
70558;SDS011;58108;48.094;11.838;2023-03-01T01:10:14;25.33;;;9.07;;
70558;SDS011;58108;48.094;11.838;2023-03-01T01:12:42;22.23;;;8.38;;
70558;SDS011;58108;48.094;11.838;2023-03-01T01:15:07;26.37;;;8.93;;
70558;SDS011;58108;48.094;11.838;2023-03-01T01:17:32;18.30;;;6.43;;
70558;SDS011;58108;48.094;11.838;2023-03-01T01:19:58;23.63;;;7.30;;
70558;SDS011;58108;48.094;11.838;2023-03-01T01:22:23;24.67;;;9.30;;
70558;SDS011;58108;48.094;11.838;2023-03-01T01:24:48;23.43;;;9.07;;
70558;SDS011;58108;48.094;11.838;2023-03-01T01:27:13;22.97;;;8.33;;
70558;SDS011;58108;48.094;11.838;2023-03-01T01:29:38;22.30;;;8.03;;
70558;SDS011;58108;48.094;11.838;2023-03-01T01:32:04;19.43;;;7.23;;
70558;SDS011;58108;48.094;11.838;2023-03-01T01:34:29;24.10;;;8.87;;
70558;SDS011;58108;48.094;11.838;2023-03-01T01:36:54;24.33;;;8.90;;
70558;SDS011;58108;48.094;11.838;2023-03-01T01:39:20;20.27;;;6.60;;
70558;SDS011;58108;48.094;11.838;2023-03-01T01:41:45;22.00;;;7.25;;
70558;SDS011;58108;48.094;11.838;2023-03-01T01:46:37;25.33;;;9.60;;
70558;SDS011;58108;48.094;11.838;2023-03-01T01:49:05;23.88;;;8.05;;
70558;SDS011;58108;48.094;11.838;2023-03-01T01:51:35;24.40;;;8.60;;
70558;SDS011;58108;48.094;11.838;2023-03-01T01:54:03;22.50;;;9.25;;
70558;SDS011;58108;48.094;11.838;2023-03-01T01:56:30;23.33;;;8.45;;
70558;SDS011;58108;48.094;11.838;2023-03-01T01:58:56;22.30;;;8.80;;
70558;SDS011;58108;48.094;11.838;2023-03-01T02:01:21;21.98;;;8.57;;
70558;SDS011;58108;48.094;11.838;2023-03-01T02:03:47;17.70;;;6.60;;
70558;SDS011;58108;48.094;11.838;2023-03-01T02:06:21;19.30;;;7.15;;
70558;SDS011;58108;48.094;11.838;2023-03-01T02:08:53;24.20;;;8.63;;
70558;SDS011;58108;48.094;11.838;2023-03-01T02:11:20;16.77;;;6.40;;
70558;SDS011;58108;48.094;11.838;2023-03-01T02:13:47;25.70;;;8.73;;
70558;SDS011;58108;48.094;11.838;2023-03-01T02:16:13;25.13;;;8.93;;
70558;SDS011;58108;48.094;11.838;2023-03-01T02:18:39;23.52;;;8.43;;
70558;SDS011;58108;48.094;11.838;2023-03-01T02:23:30;24.20;;;9.30;;
70558;SDS011;58108;48.094;11.838;2023-03-01T02:25:57;22.00;;;8.17;;
70558;SDS011;58108;48.094;11.838;2023-03-01T02:28:31;21.38;;;7.55;;
70558;SDS011;58108;48.094;11.838;2023-03-01T02:30:57;20.58;;;7.13;;
70558;SDS011;58108;48.094;11.838;2023-03-01T02:33:41;22.98;;;8.55;;
70558;SDS011;58108;48.094;11.838;2023-03-01T02:36:08;19.77;;;7.10;;
70558;SDS011;58108;48.094;11.838;2023-03-01T02:38:34;21.33;;;8.03;;
70558;SDS011;58108;48.094;11.838;2023-03-01T02:40:59;20.73;;;8.10;;
70558;SDS011;58108;48.094;11.838;2023-03-01T02:43:27;19.00;;;7.22;;
70558;SDS011;58108;48.094;11.838;2023-03-01T02:45:56;21.55;;;8.35;;
70558;SDS011;58108;48.094;11.838;2023-03-01T02:48:21;24.15;;;9.02;;
70558;SDS011;58108;48.094;11.838;2023-03-01T02:50:58;21.73;;;8.77;;
70558;SDS011;58108;48.094;11.838;2023-03-01T02:53:31;23.98;;;7.95;;
70558;SDS011;58108;48.094;11.838;2023-03-01T02:56:00;23.23;;;7.90;;
70558;SDS011;58108;48.094;11.838;2023-03-01T02:58:25;19.40;;;7.28;;
70558;SDS011;58108;48.094;11.838;2023-03-01T03:00:50;9.73;;;4.03;;
70558;SDS011;58108;48.094;11.838;2023-03-01T03:03:20;19.43;;;8.03;;
70558;SDS011;58108;48.094;11.838;2023-03-01T03:05:45;21.50;;;8.85;;
70558;SDS011;58108;48.094;11.838;2023-03-01T03:08:10;20.63;;;7.43;;
70558;SDS011;58108;48.094;11.838;2023-03-01T03:10:37;20.57;;;7.93;;
70558;SDS011;58108;48.094;11.838;2023-03-01T03:13:06;23.48;;;7.60;;
70558;SDS011;58108;48.094;11.838;2023-03-01T03:15:32;22.38;;;9.10;;
70558;SDS011;58108;48.094;11.838;2023-03-01T03:18:01;21.20;;;7.95;;
70558;SDS011;58108;48.094;11.838;2023-03-01T03:20:27;20.00;;;6.73;;
70558;SDS011;58108;48.094;11.838;2023-03-01T03:22:53;20.05;;;7.82;;
70558;SDS011;58108;48.094;11.838;2023-03-01T03:25:19;22.30;;;8.60;;
70558;SDS011;58108;48.094;11.838;2023-03-01T03:27:45;24.27;;;9.87;;
70558;SDS011;58108;48.094;11.838;2023-03-01T03:30:12;21.90;;;9.23;;
70558;SDS011;58108;48.094;11.838;2023-03-01T03:32:42;24.33;;;9.50;;
70558;SDS011;58108;48.094;11.838;2023-03-01T03:35:08;30.17;;;10.23;;
70558;SDS011;58108;48.094;11.838;2023-03-01T03:37:38;25.50;;;9.05;;
70558;SDS011;58108;48.094;11.838;2023-03-01T03:40:21;22.07;;;9.23;;
70558;SDS011;58108;48.094;11.838;2023-03-01T03:42:46;24.57;;;8.50;;
70558;SDS011;58108;48.094;11.838;2023-03-01T03:45:13;23.10;;;7.85;;
70558;SDS011;58108;48.094;11.838;2023-03-01T03:47:38;20.37;;;7.20;;
70558;SDS011;58108;48.094;11.838;2023-03-01T03:50:03;23.93;;;8.57;;
70558;SDS011;58108;48.094;11.838;2023-03-01T03:52:28;18.80;;;6.97;;
70558;SDS011;58108;48.094;11.838;2023-03-01T03:54:53;22.17;;;8.67;;
70558;SDS011;58108;48.094;11.838;2023-03-01T03:57:19;24.40;;;8.53;;
70558;SDS011;58108;48.094;11.838;2023-03-01T03:59:44;22.07;;;8.67;;
70558;SDS011;58108;48.094;11.838;2023-03-01T04:02:09;21.93;;;8.70;;
70558;SDS011;58108;48.094;11.838;2023-03-01T04:04:34;24.33;;;8.87;;
70558;SDS011;58108;48.094;11.838;2023-03-01T04:06:59;26.60;;;9.20;;
70558;SDS011;58108;48.094;11.838;2023-03-01T04:09:24;25.20;;;9.60;;
70558;SDS011;58108;48.094;11.838;2023-03-01T04:11:50;21.10;;;7.63;;
70558;SDS011;58108;48.094;11.838;2023-03-01T04:14:15;22.63;;;8.33;;
70558;SDS011;58108;48.094;11.838;2023-03-01T04:16:40;23.47;;;7.77;;
70558;SDS011;58108;48.094;11.838;2023-03-01T04:19:05;23.07;;;8.20;;
70558;SDS011;58108;48.094;11.838;2023-03-01T04:21:31;23.37;;;7.97;;
70558;SDS011;58108;48.094;11.838;2023-03-01T04:23:56;23.90;;;7.83;;
70558;SDS011;58108;48.094;11.838;2023-03-01T04:26:21;21.70;;;8.17;;
70558;SDS011;58108;48.094;11.838;2023-03-01T04:28:47;25.30;;;8.47;;
70558;SDS011;58108;48.094;11.838;2023-03-01T04:31:15;23.88;;;9.25;;
70558;SDS011;58108;48.094;11.838;2023-03-01T04:33:46;22.45;;;8.68;;
70558;SDS011;58108;48.094;11.838;2023-03-01T04:36:12;20.93;;;7.50;;
70558;SDS011;58108;48.094;11.838;2023-03-01T04:38:38;23.42;;;8.38;;
70558;SDS011;58108;48.094;11.838;2023-03-01T04:41:05;22.77;;;7.80;;
70558;SDS011;58108;48.094;11.838;2023-03-01T04:43:30;25.33;;;9.35;;
70558;SDS011;58108;48.094;11.838;2023-03-01T04:45:59;24.50;;;9.87;;
70558;SDS011;58108;48.094;11.838;2023-03-01T04:48:27;21.03;;;7.63;;
70558;SDS011;58108;48.094;11.838;2023-03-01T04:50:52;25.13;;;9.10;;
70558;SDS011;58108;48.094;11.838;2023-03-01T04:53:17;25.50;;;9.13;;
70558;SDS011;58108;48.094;11.838;2023-03-01T04:55:43;26.00;;;9.68;;
70558;SDS011;58108;48.094;11.838;2023-03-01T04:58:08;21.13;;;7.53;;
70558;SDS011;58108;48.094;11.838;2023-03-01T05:00:34;24.60;;;9.27;;
70558;SDS011;58108;48.094;11.838;2023-03-01T05:02:59;23.00;;;9.20;;
70558;SDS011;58108;48.094;11.838;2023-03-01T05:05:26;24.67;;;9.55;;
70558;SDS011;58108;48.094;11.838;2023-03-01T05:07:55;25.38;;;9.38;;
70558;SDS011;58108;48.094;11.838;2023-03-01T05:10:20;19.63;;;7.38;;
70558;SDS011;58108;48.094;11.838;2023-03-01T05:12:45;21.23;;;8.50;;
70558;SDS011;58108;48.094;11.838;2023-03-01T05:15:11;25.40;;;9.57;;
70558;SDS011;58108;48.094;11.838;2023-03-01T05:17:36;22.73;;;8.47;;
70558;SDS011;58108;48.094;11.838;2023-03-01T05:20:01;28.40;;;9.67;;
70558;SDS011;58108;48.094;11.838;2023-03-01T05:22:32;27.45;;;9.32;;
70558;SDS011;58108;48.094;11.838;2023-03-01T05:24:57;15.77;;;6.03;;
70558;SDS011;58108;48.094;11.838;2023-03-01T05:27:22;23.60;;;7.77;;
70558;SDS011;58108;48.094;11.838;2023-03-01T05:29:47;21.90;;;7.73;;
70558;SDS011;58108;48.094;11.838;2023-03-01T05:32:13;16.77;;;6.72;;
70558;SDS011;58108;48.094;11.838;2023-03-01T05:34:40;29.75;;;10.25;;
70558;SDS011;58108;48.094;11.838;2023-03-01T05:37:06;30.52;;;10.18;;
70558;SDS011;58108;48.094;11.838;2023-03-01T05:39:32;27.90;;;10.13;;
70558;SDS011;58108;48.094;11.838;2023-03-01T05:41:58;26.58;;;9.43;;
70558;SDS011;58108;48.094;11.838;2023-03-01T05:44:24;30.17;;;9.93;;
70558;SDS011;58108;48.094;11.838;2023-03-01T05:46:49;25.55;;;9.40;;
70558;SDS011;58108;48.094;11.838;2023-03-01T05:49:15;26.83;;;10.00;;
70558;SDS011;58108;48.094;11.838;2023-03-01T05:51:41;21.75;;;7.60;;
70558;SDS011;58108;48.094;11.838;2023-03-01T05:54:06;25.77;;;9.67;;
70558;SDS011;58108;48.094;11.838;2023-03-01T05:56:33;26.97;;;9.60;;
70558;SDS011;58108;48.094;11.838;2023-03-01T05:58:59;27.08;;;9.65;;
70558;SDS011;58108;48.094;11.838;2023-03-01T06:01:24;26.73;;;9.50;;
70558;SDS011;58108;48.094;11.838;2023-03-01T06:03:49;30.07;;;10.73;;
70558;SDS011;58108;48.094;11.838;2023-03-01T06:06:14;29.50;;;9.87;;
70558;SDS011;58108;48.094;11.838;2023-03-01T06:08:39;26.70;;;9.53;;
70558;SDS011;58108;48.094;11.838;2023-03-01T06:11:05;23.63;;;8.67;;
70558;SDS011;58108;48.094;11.838;2023-03-01T06:13:32;21.55;;;5.75;;
70558;SDS011;58108;48.094;11.838;2023-03-01T06:15:57;27.70;;;9.57;;
70558;SDS011;58108;48.094;11.838;2023-03-01T06:18:22;27.87;;;9.30;;
70558;SDS011;58108;48.094;11.838;2023-03-01T06:20:54;26.47;;;9.90;;
70558;SDS011;58108;48.094;11.838;2023-03-01T06:23:19;29.98;;;10.32;;
70558;SDS011;58108;48.094;11.838;2023-03-01T06:25:44;32.30;;;11.33;;
70558;SDS011;58108;48.094;11.838;2023-03-01T06:28:09;31.47;;;10.03;;
70558;SDS011;58108;48.094;11.838;2023-03-01T06:30:35;27.40;;;8.57;;
70558;SDS011;58108;48.094;11.838;2023-03-01T06:33:00;29.87;;;9.60;;
70558;SDS011;58108;48.094;11.838;2023-03-01T06:35:26;28.27;;;9.43;;
70558;SDS011;58108;48.094;11.838;2023-03-01T06:37:55;30.52;;;10.48;;
70558;SDS011;58108;48.094;11.838;2023-03-01T06:40:20;32.10;;;11.13;;
70558;SDS011;58108;48.094;11.838;2023-03-01T06:42:47;25.80;;;9.00;;
70558;SDS011;58108;48.094;11.838;2023-03-01T06:45:13;29.50;;;10.73;;
70558;SDS011;58108;48.094;11.838;2023-03-01T06:47:39;28.53;;;10.57;;
70558;SDS011;58108;48.094;11.838;2023-03-01T06:50:04;21.83;;;8.07;;
70558;SDS011;58108;48.094;11.838;2023-03-01T06:52:30;25.63;;;9.23;;
70558;SDS011;58108;48.094;11.838;2023-03-01T06:54:55;23.10;;;8.73;;
70558;SDS011;58108;48.094;11.838;2023-03-01T06:57:20;32.63;;;10.00;;
70558;SDS011;58108;48.094;11.838;2023-03-01T06:59:46;27.10;;;9.70;;
70558;SDS011;58108;48.094;11.838;2023-03-01T07:02:12;26.90;;;10.32;;
70558;SDS011;58108;48.094;11.838;2023-03-01T07:04:37;25.33;;;9.40;;
70558;SDS011;58108;48.094;11.838;2023-03-01T07:07:02;28.43;;;10.03;;
70558;SDS011;58108;48.094;11.838;2023-03-01T07:09:27;26.50;;;8.83;;
70558;SDS011;58108;48.094;11.838;2023-03-01T07:11:53;28.03;;;10.33;;
70558;SDS011;58108;48.094;11.838;2023-03-01T07:14:18;21.97;;;8.20;;
70558;SDS011;58108;48.094;11.838;2023-03-01T07:16:44;27.00;;;8.90;;
70558;SDS011;58108;48.094;11.838;2023-03-01T07:19:10;26.97;;;9.67;;
70558;SDS011;58108;48.094;11.838;2023-03-01T07:21:35;21.97;;;8.50;;
70558;SDS011;58108;48.094;11.838;2023-03-01T07:24:00;25.30;;;9.73;;
70558;SDS011;58108;48.094;11.838;2023-03-01T07:26:25;27.07;;;9.23;;
70558;SDS011;58108;48.094;11.838;2023-03-01T07:28:50;27.33;;;9.93;;
70558;SDS011;58108;48.094;11.838;2023-03-01T07:31:16;28.47;;;10.57;;
70558;SDS011;58108;48.094;11.838;2023-03-01T07:33:41;23.20;;;8.63;;
70558;SDS011;58108;48.094;11.838;2023-03-01T07:36:06;26.50;;;8.93;;
70558;SDS011;58108;48.094;11.838;2023-03-01T07:38:32;25.77;;;9.27;;
70558;SDS011;58108;48.094;11.838;2023-03-01T07:40:57;22.93;;;8.80;;
70558;SDS011;58108;48.094;11.838;2023-03-01T07:43:23;24.75;;;9.43;;
70558;SDS011;58108;48.094;11.838;2023-03-01T07:45:49;28.03;;;9.60;;
70558;SDS011;58108;48.094;11.838;2023-03-01T07:48:14;28.10;;;9.77;;
70558;SDS011;58108;48.094;11.838;2023-03-01T07:50:39;23.27;;;7.97;;
70558;SDS011;58108;48.094;11.838;2023-03-01T07:53:04;28.43;;;10.10;;
70558;SDS011;58108;48.094;11.838;2023-03-01T07:55:29;28.13;;;9.60;;
70558;SDS011;58108;48.094;11.838;2023-03-01T07:57:55;25.13;;;8.13;;
70558;SDS011;58108;48.094;11.838;2023-03-01T08:00:20;27.70;;;10.27;;
70558;SDS011;58108;48.094;11.838;2023-03-01T08:02:45;22.10;;;7.63;;
70558;SDS011;58108;48.094;11.838;2023-03-01T08:05:10;26.80;;;9.90;;
70558;SDS011;58108;48.094;11.838;2023-03-01T08:07:36;25.17;;;9.07;;
70558;SDS011;58108;48.094;11.838;2023-03-01T08:10:01;25.33;;;9.27;;
70558;SDS011;58108;48.094;11.838;2023-03-01T08:12:26;27.70;;;10.60;;
70558;SDS011;58108;48.094;11.838;2023-03-01T08:14:53;27.38;;;9.82;;
70558;SDS011;58108;48.094;11.838;2023-03-01T08:17:18;28.73;;;10.73;;
70558;SDS011;58108;48.094;11.838;2023-03-01T08:19:43;26.60;;;9.03;;
70558;SDS011;58108;48.094;11.838;2023-03-01T08:22:08;25.53;;;9.43;;
70558;SDS011;58108;48.094;11.838;2023-03-01T08:24:34;32.33;;;11.37;;
70558;SDS011;58108;48.094;11.838;2023-03-01T08:26:59;28.83;;;11.13;;
70558;SDS011;58108;48.094;11.838;2023-03-01T08:29:24;27.37;;;10.20;;
70558;SDS011;58108;48.094;11.838;2023-03-01T08:31:49;24.37;;;8.63;;
70558;SDS011;58108;48.094;11.838;2023-03-01T08:34:15;29.03;;;10.47;;
70558;SDS011;58108;48.094;11.838;2023-03-01T08:36:41;28.23;;;10.18;;
70558;SDS011;58108;48.094;11.838;2023-03-01T08:39:07;27.52;;;10.65;;
70558;SDS011;58108;48.094;11.838;2023-03-01T08:41:33;25.47;;;8.77;;
70558;SDS011;58108;48.094;11.838;2023-03-01T08:43:58;23.90;;;8.45;;
70558;SDS011;58108;48.094;11.838;2023-03-01T08:46:27;25.20;;;9.50;;
70558;SDS011;58108;48.094;11.838;2023-03-01T08:48:53;24.47;;;9.27;;
70558;SDS011;58108;48.094;11.838;2023-03-01T08:51:18;26.67;;;9.60;;
70558;SDS011;58108;48.094;11.838;2023-03-01T08:53:44;27.30;;;9.43;;
70558;SDS011;58108;48.094;11.838;2023-03-01T08:56:09;28.83;;;10.53;;
70558;SDS011;58108;48.094;11.838;2023-03-01T08:58:35;27.02;;;10.10;;
70558;SDS011;58108;48.094;11.838;2023-03-01T09:01:01;27.42;;;9.40;;
70558;SDS011;58108;48.094;11.838;2023-03-01T09:03:26;28.57;;;10.67;;
70558;SDS011;58108;48.094;11.838;2023-03-01T09:05:52;29.58;;;10.60;;
70558;SDS011;58108;48.094;11.838;2023-03-01T09:08:18;26.27;;;9.80;;
70558;SDS011;58108;48.094;11.838;2023-03-01T09:10:43;29.52;;;9.95;;
70558;SDS011;58108;48.094;11.838;2023-03-01T09:13:08;27.50;;;8.57;;
70558;SDS011;58108;48.094;11.838;2023-03-01T09:15:36;29.40;;;11.27;;
70558;SDS011;58108;48.094;11.838;2023-03-01T09:18:01;26.20;;;9.77;;
70558;SDS011;58108;48.094;11.838;2023-03-01T09:20:26;26.97;;;9.90;;
70558;SDS011;58108;48.094;11.838;2023-03-01T09:22:51;28.17;;;11.07;;
70558;SDS011;58108;48.094;11.838;2023-03-01T09:25:17;24.73;;;9.33;;
70558;SDS011;58108;48.094;11.838;2023-03-01T09:27:42;27.53;;;9.53;;
70558;SDS011;58108;48.094;11.838;2023-03-01T09:30:07;26.37;;;9.87;;
70558;SDS011;58108;48.094;11.838;2023-03-01T09:32:32;30.27;;;10.33;;
70558;SDS011;58108;48.094;11.838;2023-03-01T09:34:58;23.97;;;9.23;;
70558;SDS011;58108;48.094;11.838;2023-03-01T09:37:29;24.17;;;7.27;;
70558;SDS011;58108;48.094;11.838;2023-03-01T09:39:54;18.02;;;6.68;;
70558;SDS011;58108;48.094;11.838;2023-03-01T09:42:19;24.97;;;9.00;;
70558;SDS011;58108;48.094;11.838;2023-03-01T09:47:33;25.07;;;9.20;;
70558;SDS011;58108;48.094;11.838;2023-03-01T09:50:16;23.10;;;9.10;;
70558;SDS011;58108;48.094;11.838;2023-03-01T09:55:11;23.67;;;9.83;;
70558;SDS011;58108;48.094;11.838;2023-03-01T09:57:46;25.38;;;9.48;;
70558;SDS011;58108;48.094;11.838;2023-03-01T10:02:39;25.53;;;8.70;;
70558;SDS011;58108;48.094;11.838;2023-03-01T10:08:01;24.70;;;8.15;;
70558;SDS011;58108;48.094;11.838;2023-03-01T10:10:29;26.37;;;9.80;;
70558;SDS011;58108;48.094;11.838;2023-03-01T10:12:56;25.05;;;9.10;;
70558;SDS011;58108;48.094;11.838;2023-03-01T10:15:25;24.53;;;8.57;;
70558;SDS011;58108;48.094;11.838;2023-03-01T10:18:00;27.10;;;9.10;;
70558;SDS011;58108;48.094;11.838;2023-03-01T10:23:07;25.20;;;8.40;;
70558;SDS011;58108;48.094;11.838;2023-03-01T10:26:17;26.80;;;9.60;;
70558;SDS011;58108;48.094;11.838;2023-03-01T10:28:26;27.83;;;9.03;;
70558;SDS011;58108;48.094;11.838;2023-03-01T10:30:54;22.48;;;8.82;;
70558;SDS011;58108;48.094;11.838;2023-03-01T10:33:21;26.90;;;10.00;;
70558;SDS011;58108;48.094;11.838;2023-03-01T10:35:46;27.83;;;10.38;;
70558;SDS011;58108;48.094;11.838;2023-03-01T10:38:13;21.70;;;8.18;;
70558;SDS011;58108;48.094;11.838;2023-03-01T10:43:16;23.37;;;9.20;;
70558;SDS011;58108;48.094;11.838;2023-03-01T10:45:42;23.08;;;8.82;;
70558;SDS011;58108;48.094;11.838;2023-03-01T10:50:43;29.77;;;10.33;;
70558;SDS011;58108;48.094;11.838;2023-03-01T10:53:19;24.90;;;9.63;;
70558;SDS011;58108;48.094;11.838;2023-03-01T10:55:45;29.55;;;10.63;;
70558;SDS011;58108;48.094;11.838;2023-03-01T10:58:19;18.37;;;7.40;;
70558;SDS011;58108;48.094;11.838;2023-03-01T11:00:55;27.77;;;11.57;;
70558;SDS011;58108;48.094;11.838;2023-03-01T11:03:22;26.60;;;9.27;;
70558;SDS011;58108;48.094;11.838;2023-03-01T11:08:29;26.48;;;11.07;;
70558;SDS011;58108;48.094;11.838;2023-03-01T11:11:03;28.30;;;10.77;;
70558;SDS011;58108;48.094;11.838;2023-03-01T11:13:29;26.40;;;9.80;;
70558;SDS011;58108;48.094;11.838;2023-03-01T11:16:01;25.00;;;8.70;;
70558;SDS011;58108;48.094;11.838;2023-03-01T11:18:26;21.45;;;7.97;;
70558;SDS011;58108;48.094;11.838;2023-03-01T11:20:52;28.77;;;11.03;;
70558;SDS011;58108;48.094;11.838;2023-03-01T11:23:18;28.45;;;10.38;;
70558;SDS011;58108;48.094;11.838;2023-03-01T11:25:48;24.23;;;9.90;;
70558;SDS011;58108;48.094;11.838;2023-03-01T11:28:17;29.02;;;11.88;;
70558;SDS011;58108;48.094;11.838;2023-03-01T11:35:34;21.85;;;8.55;;
70558;SDS011;58108;48.094;11.838;2023-03-01T11:43:20;24.70;;;11.18;;
70558;SDS011;58108;48.094;11.838;2023-03-01T11:50:57;22.35;;;10.52;;
70558;SDS011;58108;48.094;11.838;2023-03-01T11:58:27;22.00;;;11.07;;
70558;SDS011;58108;48.094;11.838;2023-03-01T12:06:12;19.73;;;10.40;;
70558;SDS011;58108;48.094;11.838;2023-03-01T12:08:47;22.48;;;11.85;;
70558;SDS011;58108;48.094;11.838;2023-03-01T12:11:23;22.50;;;11.02;;
70558;SDS011;58108;48.094;11.838;2023-03-01T12:42:25;24.73;;;12.20;;
70558;SDS011;58108;48.094;11.838;2023-03-01T12:45:01;28.50;;;12.77;;
70558;SDS011;58108;48.094;11.838;2023-03-01T12:47:39;24.60;;;12.18;;
70558;SDS011;58108;48.094;11.838;2023-03-01T12:50:19;28.08;;;12.80;;
70558;SDS011;58108;48.094;11.838;2023-03-01T12:52:50;23.05;;;10.68;;
70558;SDS011;58108;48.094;11.838;2023-03-01T12:55:37;22.30;;;11.40;;
70558;SDS011;58108;48.094;11.838;2023-03-01T13:01:03;23.63;;;12.55;;
70558;SDS011;58108;48.094;11.838;2023-03-01T13:06:39;24.40;;;11.73;;
70558;SDS011;58108;48.094;11.838;2023-03-01T13:09:13;22.98;;;12.48;;
70558;SDS011;58108;48.094;11.838;2023-03-01T13:11:41;23.40;;;12.73;;
70558;SDS011;58108;48.094;11.838;2023-03-01T13:16:50;23.83;;;12.85;;
70558;SDS011;58108;48.094;11.838;2023-03-01T13:21:41;21.37;;;10.17;;
70558;SDS011;58108;48.094;11.838;2023-03-01T13:24:52;21.35;;;11.38;;
70558;SDS011;58108;48.094;11.838;2023-03-01T13:29:46;19.55;;;10.57;;
70558;SDS011;58108;48.094;11.838;2023-03-01T13:32:19;22.75;;;11.68;;
70558;SDS011;58108;48.094;11.838;2023-03-01T13:34:46;24.65;;;12.75;;
70558;SDS011;58108;48.094;11.838;2023-03-01T13:37:18;24.88;;;12.98;;
70558;SDS011;58108;48.094;11.838;2023-03-01T13:39:44;21.90;;;11.77;;
70558;SDS011;58108;48.094;11.838;2023-03-01T13:44:53;23.08;;;11.10;;
70558;SDS011;58108;48.094;11.838;2023-03-01T13:47:19;25.83;;;13.93;;
70558;SDS011;58108;48.094;11.838;2023-03-01T13:49:55;25.77;;;13.00;;
70558;SDS011;58108;48.094;11.838;2023-03-01T13:54:59;21.45;;;10.80;;
70558;SDS011;58108;48.094;11.838;2023-03-01T13:57:34;24.45;;;12.60;;
70558;SDS011;58108;48.094;11.838;2023-03-01T14:00:01;24.10;;;11.90;;
70558;SDS011;58108;48.094;11.838;2023-03-01T14:02:27;24.40;;;12.43;;
70558;SDS011;58108;48.094;11.838;2023-03-01T14:04:57;22.98;;;12.02;;
70558;SDS011;58108;48.094;11.838;2023-03-01T14:07:23;21.25;;;11.18;;
70558;SDS011;58108;48.094;11.838;2023-03-01T14:09:53;23.25;;;12.20;;
70558;SDS011;58108;48.094;11.838;2023-03-01T14:19:43;24.67;;;12.67;;
70558;SDS011;58108;48.094;11.838;2023-03-01T14:22:23;21.08;;;11.27;;
70558;SDS011;58108;48.094;11.838;2023-03-01T14:24:50;22.50;;;11.70;;
70558;SDS011;58108;48.094;11.838;2023-03-01T14:27:15;22.65;;;11.60;;
70558;SDS011;58108;48.094;11.838;2023-03-01T14:29:41;20.03;;;11.93;;
70558;SDS011;58108;48.094;11.838;2023-03-01T14:32:10;20.47;;;11.20;;
70558;SDS011;58108;48.094;11.838;2023-03-01T14:34:35;19.88;;;11.68;;
70558;SDS011;58108;48.094;11.838;2023-03-01T14:39:44;19.85;;;9.85;;
70558;SDS011;58108;48.094;11.838;2023-03-01T14:42:10;19.53;;;10.53;;
70558;SDS011;58108;48.094;11.838;2023-03-01T14:44:37;23.23;;;11.10;;
70558;SDS011;58108;48.094;11.838;2023-03-01T14:47:02;22.10;;;11.53;;
70558;SDS011;58108;48.094;11.838;2023-03-01T14:49:29;21.42;;;11.60;;
70558;SDS011;58108;48.094;11.838;2023-03-01T14:52:02;24.65;;;12.27;;
70558;SDS011;58108;48.094;11.838;2023-03-01T14:54:37;24.80;;;12.15;;
70558;SDS011;58108;48.094;11.838;2023-03-01T14:57:05;25.27;;;11.90;;
70558;SDS011;58108;48.094;11.838;2023-03-01T14:59:32;20.90;;;10.83;;
70558;SDS011;58108;48.094;11.838;2023-03-01T15:01:58;21.75;;;10.43;;
70558;SDS011;58108;48.094;11.838;2023-03-01T15:04:24;21.27;;;10.45;;
70558;SDS011;58108;48.094;11.838;2023-03-01T15:06:51;19.67;;;10.77;;
70558;SDS011;58108;48.094;11.838;2023-03-01T15:09:16;19.33;;;10.47;;
70558;SDS011;58108;48.094;11.838;2023-03-01T15:11:42;21.90;;;11.10;;
70558;SDS011;58108;48.094;11.838;2023-03-01T15:16:52;19.02;;;9.73;;
70558;SDS011;58108;48.094;11.838;2023-03-01T15:19:17;22.03;;;10.50;;
70558;SDS011;58108;48.094;11.838;2023-03-01T15:21:48;26.50;;;12.03;;
70558;SDS011;58108;48.094;11.838;2023-03-01T15:24:18;20.50;;;10.25;;
70558;SDS011;58108;48.094;11.838;2023-03-01T15:26:45;20.73;;;10.38;;
70558;SDS011;58108;48.094;11.838;2023-03-01T15:29:15;21.52;;;10.45;;
70558;SDS011;58108;48.094;11.838;2023-03-01T15:31:41;22.95;;;11.48;;
70558;SDS011;58108;48.094;11.838;2023-03-01T15:36:42;20.65;;;10.27;;
70558;SDS011;58108;48.094;11.838;2023-03-01T15:41:52;23.00;;;10.18;;
70558;SDS011;58108;48.094;11.838;2023-03-01T15:44:24;22.93;;;10.27;;
70558;SDS011;58108;48.094;11.838;2023-03-01T15:46:50;20.50;;;9.93;;
70558;SDS011;58108;48.094;11.838;2023-03-01T15:51:46;22.02;;;9.88;;
70558;SDS011;58108;48.094;11.838;2023-03-01T15:54:17;21.00;;;10.17;;
70558;SDS011;58108;48.094;11.838;2023-03-01T15:56:43;23.33;;;9.75;;
70558;SDS011;58108;48.094;11.838;2023-03-01T15:59:09;25.23;;;10.18;;
70558;SDS011;58108;48.094;11.838;2023-03-01T16:01:36;22.65;;;9.43;;
70558;SDS011;58108;48.094;11.838;2023-03-01T16:04:01;22.90;;;9.88;;
70558;SDS011;58108;48.094;11.838;2023-03-01T16:06:27;22.00;;;10.03;;
70558;SDS011;58108;48.094;11.838;2023-03-01T16:08:52;21.60;;;9.40;;
70558;SDS011;58108;48.094;11.838;2023-03-01T16:11:18;24.27;;;10.27;;
70558;SDS011;58108;48.094;11.838;2023-03-01T16:13:44;23.95;;;10.30;;
70558;SDS011;58108;48.094;11.838;2023-03-01T16:16:12;22.83;;;9.63;;
70558;SDS011;58108;48.094;11.838;2023-03-01T16:18:40;21.30;;;9.80;;